< < Back
Terminal Aerodrome Forecast


Current Version              Previous Versions:   1  2  3  4  5  6  7  8  9  

Terminal Aerodrome Forecast

895
FTUS42 KGSP 281735
TAFAVL
TAF
KAVL 281735Z 2818/2918 35008KT P6SM VCTS BKN050CB
     FM282000 34008KT P6SM VCTS BKN060CB
     FM290000 33004KT P6SM BKN090
     FM290100 33003KT P6SM FEW090 SCT250
     FM290900 34003KT 5SM BR SCT250
     FM291300 34005KT P6SM FEW040 SCT250=

Latest METAR

361
SAUS70 KWBC 290500 RRS
MTRAVL
METAR KAVL 290454Z AUTO 32003KT 10SM CLR 18/16 A3006 RMK AO2 SLP155
T01830161 403000183


USA.gov is the U.S. government's official web portal to all federal, state and local government web resources and services.